Saint Hedwig, TX (78152)

20:35 CST le 09 février 2016 (GMT -0600)
Sayers | | Change Station
CLOSE
Current Station
Stations météorologiques personnelles
Location: Adkins, TX
Altitude: 582 ft
Stations météo à proximité

Alt. 582 ft 29.39 °N, 98.28 °W | Updated 6 minutes ago

Ciel dégagé
Ciel dégagé
50.9 ° F
Paraît 50.9 ° F
N
0.0
Vent Variable Vent de Nord
Gusts 0.0 mph

Aujourd'hui
Haut(e) -- | Bas -- ° F
--% Risque de précip.
Hier
Haut(e) -- | Bas -- ° F
Precip. -- pouce
Pression 30.28 pouce
Visibilité 10.0 Miles terrestres
Nuages Ciel dégagé
Point de rosée 34 ° F
Humidité 53%
Précipitations 0.00 pouce
Profondeur de la couche neigeuse Non disponible.
7:17 AM 6:17 PM
Lune montante, 3% visible
METAR KRND 100158Z AUTO 31004KT 10SM CLR 14/M02 A3027 RMK AO2 SLP252 T01411017
Pression 30.28 pouce
Visibilité 10.0 Miles terrestres
Nuages Ciel dégagé
Point de rosée 34 ° F
Humidité 53%
Précipitations 0.00 pouce
Profondeur de la couche neigeuse Non disponible.
7:17 AM 6:17 PM
Lune montante, 3% visible
METAR KRND 100158Z AUTO 31004KT 10SM CLR 14/M02 A3027 RMK AO2 SLP252 T01411017

10-Day Weather Forecast

Almanac

Astronomie

Feb. 09, 2016 Lever Coucher
Temps réel
Crépuscule civil
Crépuscule nautique
Crépuscule astronomique
Lune
Durée de lumière visible
Longueur du jour
Tomorrow will be .
, % of the Moon is Illuminated

Extrêmes aujourd'hui

State Highs State Lows

Community

WunderPhotos

Upload Photos

1,891,763 Photos téléchargées !

WunderBlog® & News

Nearby

Qualité de l'air

  Qualité de l'air Indice de la qualité de l'air Polluant
Not available.

Épaisseur de neige

Station Depth Altitude

Activité sismique

Ville Distance Mag. Time & Date
Minimum magnitude displayed is 2.5.

Températures des eaux côtières

Lieu Température

Stations

Stations météo à proximité

Emplacement de la station Température Refroidissement éolien Point de rosée Humidité Vent Precip. Alt. Mise à jour Type
                   

Watches & Warnings

There are currently no watches in effect.